Ely Airport Yelland Field
KELY : now visible

Airfield :











YOU CAN JOIN US ON...

 
LOGIN :

Register | Disclaimer

   EN    FR    IT 

 









Legend :    VFR   Marginal VFR   IFR   Intensive IFR   Very Intensive IFR
Visi :
Ceiling :
>= 8 km
>= 3000ft
5 to 8 km
1000 to 3000 ft
1500m to 5 km
500 to 1000 ft
800 to 1500m
200 to 500 ft
< 800m
< 200 ft
Symbols :   Thunderstorms  Fog  Heavy snow  Heavy precipitations  Wind > 20 kt






- Airport Elevation : 6259 ft


KELY - Ely Yelland Field

CURRENT METAR :
  • 180453Z AUTO 35010KT 10SM CLR 08/M18 A3004 RMK AO2 SLP097 T00781178

EXPIRED METARs :
  • 180353Z AUTO 03009KT 10SM CLR 08/M19 A3003 RMK AO2 SLP096 T00831194
  • 180253Z AUTO 36010KT 10SM CLR 11/M16 A3001 RMK AO2 PK WND 01028/0234 SLP086 T01111161 51020
  • 180153Z AUTO 34013G21KT 10SM CLR 13/M15 A2998 RMK AO2 PK WND 29037/0059 SLP082 T01331150
  • 180053Z AUTO 33015G34KT 10SM CLR 14/M11 A2996 RMK AO2 PK WND 36036/0026 SLP091 T01441111

TAF KELY
Valid from the 18 at 06:00 until the 19 at 06:00 UTC


180548Z 1806/1906 36010KT P6SM SKC
FM182000 01010G20KT P6SM SKC
FM190200 36008KT P6SM SKC
KZLC FIR / North America



MET'MAP, your aeronautical weather chart ! - Copyright ORBIFLY December 2007 - Disclaimer

ORBIFLY MET'MAP TEAM :

Programming & Development : Alexandra Zaïnal
Original concept : Baudouin d'Aumeries
Technical & hardware support : Manuel Goepfert
Assistance : Marc-Olivier Méhu




SOURCES & CREDITS :

   NOAA       Earth
Advisory